sensor_id;sensor_type;location;lat;lon;timestamp;P1;durP1;ratioP1;P2;durP2;ratioP2
23768;SDS011;12064;50.890;5.424;2023-10-09T00:07:14;4.00;;;3.33;;
23768;SDS011;12064;50.890;5.424;2023-10-09T00:16:07;3.45;;;3.03;;
23768;SDS011;12064;50.890;5.424;2023-10-09T00:25:05;3.67;;;3.10;;
23768;SDS011;12064;50.890;5.424;2023-10-09T00:34:01;4.22;;;3.30;;
23768;SDS011;12064;50.890;5.424;2023-10-09T00:42:55;3.30;;;3.00;;
23768;SDS011;12064;50.890;5.424;2023-10-09T00:51:47;3.30;;;2.90;;
23768;SDS011;12064;50.890;5.424;2023-10-09T01:00:46;3.78;;;3.00;;
23768;SDS011;12064;50.890;5.424;2023-10-09T01:09:37;3.70;;;3.40;;
23768;SDS011;12064;50.890;5.424;2023-10-09T01:18:34;3.75;;;3.05;;
23768;SDS011;12064;50.890;5.424;2023-10-09T01:27:28;3.35;;;2.92;;
23768;SDS011;12064;50.890;5.424;2023-10-09T01:36:22;3.47;;;2.90;;
23768;SDS011;12064;50.890;5.424;2023-10-09T01:45:21;3.60;;;2.90;;
23768;SDS011;12064;50.890;5.424;2023-10-09T01:54:12;3.70;;;3.10;;
23768;SDS011;12064;50.890;5.424;2023-10-09T02:03:17;3.17;;;2.88;;
23768;SDS011;12064;50.890;5.424;2023-10-09T02:12:08;3.17;;;2.80;;
23768;SDS011;12064;50.890;5.424;2023-10-09T02:29:49;2.87;;;2.67;;
23768;SDS011;12064;50.890;5.424;2023-10-09T02:38:40;3.20;;;2.90;;
23768;SDS011;12064;50.890;5.424;2023-10-09T02:47:32;3.20;;;2.90;;
23768;SDS011;12064;50.890;5.424;2023-10-09T02:56:29;3.20;;;2.90;;
23768;SDS011;12064;50.890;5.424;2023-10-09T03:05:42;3.95;;;3.03;;
23768;SDS011;12064;50.890;5.424;2023-10-09T03:14:35;3.00;;;2.70;;
23768;SDS011;12064;50.890;5.424;2023-10-09T03:23:28;3.05;;;2.75;;
23768;SDS011;12064;50.890;5.424;2023-10-09T03:32:19;2.75;;;2.53;;
23768;SDS011;12064;50.890;5.424;2023-10-09T03:41:10;3.03;;;2.72;;
23768;SDS011;12064;50.890;5.424;2023-10-09T03:50:02;2.70;;;2.50;;
23768;SDS011;12064;50.890;5.424;2023-10-09T03:59:11;3.65;;;3.00;;
23768;SDS011;12064;50.890;5.424;2023-10-09T04:08:02;3.25;;;2.95;;
23768;SDS011;12064;50.890;5.424;2023-10-09T04:17:02;3.00;;;2.70;;
23768;SDS011;12064;50.890;5.424;2023-10-09T04:26:13;3.03;;;2.72;;
23768;SDS011;12064;50.890;5.424;2023-10-09T04:35:04;2.85;;;2.55;;
23768;SDS011;12064;50.890;5.424;2023-10-09T04:44:13;3.40;;;2.55;;
23768;SDS011;12064;50.890;5.424;2023-10-09T04:53:13;2.60;;;2.40;;
23768;SDS011;12064;50.890;5.424;2023-10-09T05:02:03;3.65;;;2.90;;
23768;SDS011;12064;50.890;5.424;2023-10-09T05:11:00;3.10;;;2.80;;
23768;SDS011;12064;50.890;5.424;2023-10-09T05:19:51;2.78;;;2.50;;
23768;SDS011;12064;50.890;5.424;2023-10-09T05:28:44;3.10;;;2.80;;
23768;SDS011;12064;50.890;5.424;2023-10-09T05:37:38;2.88;;;2.67;;
23768;SDS011;12064;50.890;5.424;2023-10-09T05:46:36;2.77;;;2.57;;
23768;SDS011;12064;50.890;5.424;2023-10-09T05:55:27;4.30;;;2.95;;
23768;SDS011;12064;50.890;5.424;2023-10-09T06:04:37;4.20;;;2.85;;
23768;SDS011;12064;50.890;5.424;2023-10-09T06:13:44;3.08;;;2.70;;
23768;SDS011;12064;50.890;5.424;2023-10-09T06:22:37;4.13;;;2.67;;
23768;SDS011;12064;50.890;5.424;2023-10-09T06:31:46;4.80;;;2.92;;
23768;SDS011;12064;50.890;5.424;2023-10-09T06:40:55;3.60;;;3.20;;
23768;SDS011;12064;50.890;5.424;2023-10-09T06:49:54;3.35;;;2.85;;
23768;SDS011;12064;50.890;5.424;2023-10-09T06:59:08;3.90;;;2.83;;
23768;SDS011;12064;50.890;5.424;2023-10-09T07:08:14;5.88;;;3.40;;
23768;SDS011;12064;50.890;5.424;2023-10-09T07:17:22;7.53;;;4.63;;
23768;SDS011;12064;50.890;5.424;2023-10-09T07:26:13;8.00;;;5.35;;
23768;SDS011;12064;50.890;5.424;2023-10-09T07:35:13;8.30;;;5.90;;
23768;SDS011;12064;50.890;5.424;2023-10-09T07:44:23;10.30;;;6.72;;
23768;SDS011;12064;50.890;5.424;2023-10-09T07:53:29;10.80;;;6.65;;
23768;SDS011;12064;50.890;5.424;2023-10-09T08:02:33;12.85;;;6.93;;
23768;SDS011;12064;50.890;5.424;2023-10-09T08:11:23;7.47;;;5.07;;
23768;SDS011;12064;50.890;5.424;2023-10-09T08:20:33;6.68;;;4.82;;
23768;SDS011;12064;50.890;5.424;2023-10-09T08:29:46;5.40;;;4.38;;
23768;SDS011;12064;50.890;5.424;2023-10-09T08:38:37;7.75;;;4.20;;
23768;SDS011;12064;50.890;5.424;2023-10-09T08:47:32;5.40;;;4.10;;
23768;SDS011;12064;50.890;5.424;2023-10-09T08:56:23;5.20;;;4.00;;
23768;SDS011;12064;50.890;5.424;2023-10-09T09:05:17;5.00;;;4.10;;
23768;SDS011;12064;50.890;5.424;2023-10-09T09:14:11;5.70;;;3.90;;
23768;SDS011;12064;50.890;5.424;2023-10-09T09:23:09;4.68;;;3.55;;
23768;SDS011;12064;50.890;5.424;2023-10-09T09:32:03;4.20;;;3.50;;
23768;SDS011;12064;50.890;5.424;2023-10-09T09:41:10;4.13;;;3.60;;
23768;SDS011;12064;50.890;5.424;2023-10-09T09:50:03;4.18;;;3.40;;
23768;SDS011;12064;50.890;5.424;2023-10-09T09:59:03;6.10;;;3.47;;
23768;SDS011;12064;50.890;5.424;2023-10-09T10:07:58;4.05;;;3.40;;
23768;SDS011;12064;50.890;5.424;2023-10-09T10:17:05;4.10;;;3.60;;
23768;SDS011;12064;50.890;5.424;2023-10-09T10:26:20;7.40;;;3.30;;
23768;SDS011;12064;50.890;5.424;2023-10-09T10:35:15;5.25;;;3.67;;
23768;SDS011;12064;50.890;5.424;2023-10-09T10:44:06;5.47;;;3.38;;
23768;SDS011;12064;50.890;5.424;2023-10-09T10:53:23;4.07;;;3.63;;
23768;SDS011;12064;50.890;5.424;2023-10-09T11:02:18;4.70;;;3.65;;
23768;SDS011;12064;50.890;5.424;2023-10-09T11:11:18;6.82;;;3.30;;
23768;SDS011;12064;50.890;5.424;2023-10-09T11:20:09;4.03;;;3.20;;
23768;SDS011;12064;50.890;5.424;2023-10-09T11:29:15;3.95;;;3.50;;
23768;SDS011;12064;50.890;5.424;2023-10-09T11:38:09;5.55;;;3.35;;
23768;SDS011;12064;50.890;5.424;2023-10-09T11:47:11;3.92;;;3.17;;
23768;SDS011;12064;50.890;5.424;2023-10-09T11:56:08;3.47;;;3.17;;
23768;SDS011;12064;50.890;5.424;2023-10-09T12:05:04;3.83;;;3.17;;
23768;SDS011;12064;50.890;5.424;2023-10-09T12:13:57;4.28;;;3.40;;
23768;SDS011;12064;50.890;5.424;2023-10-09T12:22:50;4.50;;;3.30;;
23768;SDS011;12064;50.890;5.424;2023-10-09T12:31:41;5.87;;;3.43;;
23768;SDS011;12064;50.890;5.424;2023-10-09T12:40:36;4.97;;;3.47;;
23768;SDS011;12064;50.890;5.424;2023-10-09T12:49:26;4.45;;;3.70;;
23768;SDS011;12064;50.890;5.424;2023-10-09T12:58:18;4.13;;;3.40;;
23768;SDS011;12064;50.890;5.424;2023-10-09T13:07:09;3.83;;;3.42;;
23768;SDS011;12064;50.890;5.424;2023-10-09T13:15:59;4.63;;;3.20;;
23768;SDS011;12064;50.890;5.424;2023-10-09T13:24:50;5.23;;;3.10;;
23768;SDS011;12064;50.890;5.424;2023-10-09T13:33:43;3.72;;;3.00;;
23768;SDS011;12064;50.890;5.424;2023-10-09T13:42:34;3.78;;;3.28;;
23768;SDS011;12064;50.890;5.424;2023-10-09T13:51:25;3.55;;;3.10;;
23768;SDS011;12064;50.890;5.424;2023-10-09T14:00:19;3.80;;;2.97;;
23768;SDS011;12064;50.890;5.424;2023-10-09T14:09:24;3.83;;;3.03;;
23768;SDS011;12064;50.890;5.424;2023-10-09T14:18:18;3.40;;;3.10;;
23768;SDS011;12064;50.890;5.424;2023-10-09T14:27:08;4.27;;;3.10;;
23768;SDS011;12064;50.890;5.424;2023-10-09T14:36:05;3.90;;;3.08;;
23768;SDS011;12064;50.890;5.424;2023-10-09T14:44:57;3.63;;;2.90;;
23768;SDS011;12064;50.890;5.424;2023-10-09T14:53:49;3.67;;;3.20;;
23768;SDS011;12064;50.890;5.424;2023-10-09T15:02:39;3.80;;;3.08;;
23768;SDS011;12064;50.890;5.424;2023-10-09T15:11:30;4.28;;;3.80;;
23768;SDS011;12064;50.890;5.424;2023-10-09T15:20:21;3.95;;;3.00;;
23768;SDS011;12064;50.890;5.424;2023-10-09T15:29:11;3.73;;;2.97;;
23768;SDS011;12064;50.890;5.424;2023-10-09T15:38:03;5.55;;;3.83;;
23768;SDS011;12064;50.890;5.424;2023-10-09T15:46:54;6.10;;;3.60;;
23768;SDS011;12064;50.890;5.424;2023-10-09T15:55:49;5.32;;;3.70;;
23768;SDS011;12064;50.890;5.424;2023-10-09T16:04:42;4.05;;;3.20;;
23768;SDS011;12064;50.890;5.424;2023-10-09T16:13:33;4.28;;;3.30;;
23768;SDS011;12064;50.890;5.424;2023-10-09T16:22:24;5.20;;;3.30;;
23768;SDS011;12064;50.890;5.424;2023-10-09T16:31:19;6.43;;;3.85;;
23768;SDS011;12064;50.890;5.424;2023-10-09T16:40:10;4.65;;;3.20;;
23768;SDS011;12064;50.890;5.424;2023-10-09T16:49:03;13.70;;;4.38;;
23768;SDS011;12064;50.890;5.424;2023-10-09T16:57:54;9.95;;;4.00;;
23768;SDS011;12064;50.890;5.424;2023-10-09T17:06:45;9.65;;;4.30;;
23768;SDS011;12064;50.890;5.424;2023-10-09T17:15:45;9.52;;;3.90;;
23768;SDS011;12064;50.890;5.424;2023-10-09T17:24:39;7.82;;;4.28;;
23768;SDS011;12064;50.890;5.424;2023-10-09T17:33:31;9.43;;;3.97;;
23768;SDS011;12064;50.890;5.424;2023-10-09T17:42:22;6.85;;;3.80;;
23768;SDS011;12064;50.890;5.424;2023-10-09T17:51:12;6.27;;;3.90;;
23768;SDS011;12064;50.890;5.424;2023-10-09T18:00:04;5.65;;;3.70;;
23768;SDS011;12064;50.890;5.424;2023-10-09T18:08:57;6.00;;;3.65;;
23768;SDS011;12064;50.890;5.424;2023-10-09T18:17:48;5.90;;;3.70;;
23768;SDS011;12064;50.890;5.424;2023-10-09T18:26:40;7.45;;;3.63;;
23768;SDS011;12064;50.890;5.424;2023-10-09T18:35:31;6.78;;;3.53;;
23768;SDS011;12064;50.890;5.424;2023-10-09T18:44:23;5.97;;;3.53;;
23768;SDS011;12064;50.890;5.424;2023-10-09T18:53:14;4.93;;;3.47;;
23768;SDS011;12064;50.890;5.424;2023-10-09T19:02:05;4.72;;;3.72;;
23768;SDS011;12064;50.890;5.424;2023-10-09T19:10:59;5.40;;;3.55;;
23768;SDS011;12064;50.890;5.424;2023-10-09T19:19:50;4.75;;;3.60;;
23768;SDS011;12064;50.890;5.424;2023-10-09T19:28:42;5.75;;;3.53;;
23768;SDS011;12064;50.890;5.424;2023-10-09T19:37:33;4.68;;;3.40;;
23768;SDS011;12064;50.890;5.424;2023-10-09T19:46:24;4.13;;;3.20;;
23768;SDS011;12064;50.890;5.424;2023-10-09T19:55:18;5.22;;;3.10;;
23768;SDS011;12064;50.890;5.424;2023-10-09T20:04:11;4.00;;;3.20;;
23768;SDS011;12064;50.890;5.424;2023-10-09T20:13:03;4.90;;;3.50;;
23768;SDS011;12064;50.890;5.424;2023-10-09T20:21:54;5.45;;;3.53;;
23768;SDS011;12064;50.890;5.424;2023-10-09T20:30:45;6.22;;;3.13;;
23768;SDS011;12064;50.890;5.424;2023-10-09T20:39:37;3.78;;;3.00;;
23768;SDS011;12064;50.890;5.424;2023-10-09T20:48:28;4.95;;;3.75;;
23768;SDS011;12064;50.890;5.424;2023-10-09T20:57:18;4.40;;;3.10;;
23768;SDS011;12064;50.890;5.424;2023-10-09T21:06:09;4.27;;;3.33;;
23768;SDS011;12064;50.890;5.424;2023-10-09T21:15:02;5.13;;;3.50;;
23768;SDS011;12064;50.890;5.424;2023-10-09T21:23:53;3.72;;;3.22;;
23768;SDS011;12064;50.890;5.424;2023-10-09T21:32:47;4.47;;;3.22;;
23768;SDS011;12064;50.890;5.424;2023-10-09T21:41:39;4.50;;;3.40;;
23768;SDS011;12064;50.890;5.424;2023-10-09T21:50:30;4.47;;;3.20;;
23768;SDS011;12064;50.890;5.424;2023-10-09T21:59:21;4.30;;;3.20;;
23768;SDS011;12064;50.890;5.424;2023-10-09T22:08:12;4.53;;;3.17;;
23768;SDS011;12064;50.890;5.424;2023-10-09T22:17:04;4.60;;;3.20;;
23768;SDS011;12064;50.890;5.424;2023-10-09T22:25:56;5.10;;;3.05;;
23768;SDS011;12064;50.890;5.424;2023-10-09T22:34:50;4.75;;;3.30;;
23768;SDS011;12064;50.890;5.424;2023-10-09T22:43:41;4.43;;;2.78;;
23768;SDS011;12064;50.890;5.424;2023-10-09T22:52:36;4.13;;;2.97;;
23768;SDS011;12064;50.890;5.424;2023-10-09T23:01:27;5.63;;;2.93;;
23768;SDS011;12064;50.890;5.424;2023-10-09T23:10:18;4.80;;;3.33;;
23768;SDS011;12064;50.890;5.424;2023-10-09T23:19:09;3.35;;;2.92;;
23768;SDS011;12064;50.890;5.424;2023-10-09T23:28:19;3.78;;;3.10;;
23768;SDS011;12064;50.890;5.424;2023-10-09T23:37:40;4.63;;;3.10;;
23768;SDS011;12064;50.890;5.424;2023-10-09T23:46:52;3.70;;;2.95;;
23768;SDS011;12064;50.890;5.424;2023-10-09T23:55:43;3.00;;;2.75;;
